sensor_id;sensor_type;location;lat;lon;timestamp;temperature;humidity
20035;DHT22;10178;48.034;9.800;2022-09-12T00:00:12;17.10;99.90
20035;DHT22;10178;48.034;9.800;2022-09-12T00:02:40;17.10;99.90
20035;DHT22;10178;48.034;9.800;2022-09-12T00:05:06;17.10;99.90
20035;DHT22;10178;48.034;9.800;2022-09-12T00:07:32;17.00;99.90
20035;DHT22;10178;48.034;9.800;2022-09-12T00:09:58;17.00;99.90
20035;DHT22;10178;48.034;9.800;2022-09-12T00:12:23;17.00;99.90
20035;DHT22;10178;48.034;9.800;2022-09-12T00:14:49;17.00;99.90
20035;DHT22;10178;48.034;9.800;2022-09-12T00:17:14;16.90;99.90
20035;DHT22;10178;48.034;9.800;2022-09-12T00:19:40;16.90;99.90
20035;DHT22;10178;48.034;9.800;2022-09-12T00:22:06;16.90;99.90
20035;DHT22;10178;48.034;9.800;2022-09-12T00:24:31;16.90;99.90
20035;DHT22;10178;48.034;9.800;2022-09-12T00:26:58;16.80;99.90
20035;DHT22;10178;48.034;9.800;2022-09-12T00:29:24;16.80;99.90
20035;DHT22;10178;48.034;9.800;2022-09-12T00:31:49;16.80;99.90
20035;DHT22;10178;48.034;9.800;2022-09-12T00:34:15;16.80;99.90
20035;DHT22;10178;48.034;9.800;2022-09-12T00:36:41;16.80;99.90
20035;DHT22;10178;48.034;9.800;2022-09-12T00:39:11;16.80;99.90
20035;DHT22;10178;48.034;9.800;2022-09-12T00:41:39;16.80;99.90
20035;DHT22;10178;48.034;9.800;2022-09-12T00:46:57;16.70;99.90
20035;DHT22;10178;48.034;9.800;2022-09-12T00:49:42;16.70;99.90
20035;DHT22;10178;48.034;9.800;2022-09-12T00:52:15;16.60;99.90
20035;DHT22;10178;48.034;9.800;2022-09-12T00:54:54;16.60;99.90
20035;DHT22;10178;48.034;9.800;2022-09-12T00:57:23;16.60;99.90
20035;DHT22;10178;48.034;9.800;2022-09-12T01:00:08;16.60;99.90
20035;DHT22;10178;48.034;9.800;2022-09-12T01:02:37;16.50;99.90
20035;DHT22;10178;48.034;9.800;2022-09-12T01:05:05;16.50;99.90
20035;DHT22;10178;48.034;9.800;2022-09-12T01:07:34;16.50;99.90
20035;DHT22;10178;48.034;9.800;2022-09-12T01:10:00;16.50;99.90
20035;DHT22;10178;48.034;9.800;2022-09-12T01:12:26;16.40;99.90
20035;DHT22;10178;48.034;9.800;2022-09-12T01:14:52;16.40;99.90
20035;DHT22;10178;48.034;9.800;2022-09-12T01:17:17;16.40;99.90
20035;DHT22;10178;48.034;9.800;2022-09-12T01:36:41;16.20;99.90
20035;DHT22;10178;48.034;9.800;2022-09-12T01:39:23;16.10;99.90
20035;DHT22;10178;48.034;9.800;2022-09-12T01:45:05;16.10;99.90
20035;DHT22;10178;48.034;9.800;2022-09-12T01:50:26;16.00;99.90
20035;DHT22;10178;48.034;9.800;2022-09-12T01:53:06;16.00;99.90
20035;DHT22;10178;48.034;9.800;2022-09-12T01:55:37;16.00;99.90
20035;DHT22;10178;48.034;9.800;2022-09-12T01:58:09;16.00;99.90
20035;DHT22;10178;48.034;9.800;2022-09-12T02:00:54;16.00;99.90
20035;DHT22;10178;48.034;9.800;2022-09-12T02:03:29;15.90;99.90
20035;DHT22;10178;48.034;9.800;2022-09-12T02:06:04;15.90;99.90
20035;DHT22;10178;48.034;9.800;2022-09-12T02:08:37;15.90;99.90
20035;DHT22;10178;48.034;9.800;2022-09-12T02:11:09;15.80;99.90
20035;DHT22;10178;48.034;9.800;2022-09-12T02:14:03;15.80;99.90
20035;DHT22;10178;48.034;9.800;2022-09-12T02:16:34;15.80;99.90
20035;DHT22;10178;48.034;9.800;2022-09-12T02:19:22;15.80;99.90
20035;DHT22;10178;48.034;9.800;2022-09-12T02:22:08;15.80;99.90
20035;DHT22;10178;48.034;9.800;2022-09-12T02:24:39;15.70;99.90
20035;DHT22;10178;48.034;9.800;2022-09-12T02:27:13;15.70;99.90
20035;DHT22;10178;48.034;9.800;2022-09-12T02:29:40;15.70;99.90
20035;DHT22;10178;48.034;9.800;2022-09-12T02:32:35;15.70;99.90
20035;DHT22;10178;48.034;9.800;2022-09-12T02:35:51;15.60;99.90
20035;DHT22;10178;48.034;9.800;2022-09-12T02:38:14;15.60;99.90
20035;DHT22;10178;48.034;9.800;2022-09-12T02:40:42;15.60;99.90
20035;DHT22;10178;48.034;9.800;2022-09-12T02:43:07;15.50;99.90
20035;DHT22;10178;48.034;9.800;2022-09-12T02:45:34;15.60;99.90
20035;DHT22;10178;48.034;9.800;2022-09-12T02:48:11;15.60;99.90
20035;DHT22;10178;48.034;9.800;2022-09-12T02:50:37;15.60;99.90
20035;DHT22;10178;48.034;9.800;2022-09-12T02:53:06;15.60;99.90
20035;DHT22;10178;48.034;9.800;2022-09-12T02:55:34;15.60;99.90
20035;DHT22;10178;48.034;9.800;2022-09-12T02:58:06;15.60;99.90
20035;DHT22;10178;48.034;9.800;2022-09-12T03:00:39;15.60;99.90
20035;DHT22;10178;48.034;9.800;2022-09-12T03:06:23;15.50;99.90
20035;DHT22;10178;48.034;9.800;2022-09-12T03:17:29;15.50;99.90
20035;DHT22;10178;48.034;9.800;2022-09-12T03:20:06;15.50;99.90
20035;DHT22;10178;48.034;9.800;2022-09-12T03:25:29;15.50;99.90
20035;DHT22;10178;48.034;9.800;2022-09-12T03:28:01;15.50;99.90
20035;DHT22;10178;48.034;9.800;2022-09-12T03:30:37;15.40;99.90
20035;DHT22;10178;48.034;9.800;2022-09-12T03:33:03;15.40;99.90
20035;DHT22;10178;48.034;9.800;2022-09-12T03:35:29;15.40;99.90
20035;DHT22;10178;48.034;9.800;2022-09-12T03:37:55;15.40;99.90
20035;DHT22;10178;48.034;9.800;2022-09-12T03:40:20;15.40;99.90
20035;DHT22;10178;48.034;9.800;2022-09-12T03:42:46;15.40;99.90
20035;DHT22;10178;48.034;9.800;2022-09-12T03:45:12;15.40;99.90
20035;DHT22;10178;48.034;9.800;2022-09-12T03:47:38;15.40;99.90
20035;DHT22;10178;48.034;9.800;2022-09-12T03:50:05;15.40;99.90
20035;DHT22;10178;48.034;9.800;2022-09-12T03:52:31;15.40;99.90
20035;DHT22;10178;48.034;9.800;2022-09-12T03:54:56;15.40;99.90
20035;DHT22;10178;48.034;9.800;2022-09-12T03:57:22;15.30;99.90
20035;DHT22;10178;48.034;9.800;2022-09-12T03:59:48;15.30;99.90
20035;DHT22;10178;48.034;9.800;2022-09-12T04:02:15;15.20;99.90
20035;DHT22;10178;48.034;9.800;2022-09-12T04:04:41;14.90;99.90
20035;DHT22;10178;48.034;9.800;2022-09-12T04:07:12;14.80;99.90
20035;DHT22;10178;48.034;9.800;2022-09-12T04:09:37;14.70;99.90
20035;DHT22;10178;48.034;9.800;2022-09-12T04:12:03;14.80;99.90
20035;DHT22;10178;48.034;9.800;2022-09-12T04:14:29;14.80;99.90
20035;DHT22;10178;48.034;9.800;2022-09-12T04:16:55;14.90;99.90
20035;DHT22;10178;48.034;9.800;2022-09-12T04:19:20;14.80;99.90
20035;DHT22;10178;48.034;9.800;2022-09-12T04:21:47;14.90;99.90
20035;DHT22;10178;48.034;9.800;2022-09-12T04:24:13;14.90;99.90
20035;DHT22;10178;48.034;9.800;2022-09-12T04:26:39;14.90;99.90
20035;DHT22;10178;48.034;9.800;2022-09-12T04:29:04;14.90;99.90
20035;DHT22;10178;48.034;9.800;2022-09-12T04:31:30;14.90;99.90
20035;DHT22;10178;48.034;9.800;2022-09-12T04:33:57;14.90;99.90
20035;DHT22;10178;48.034;9.800;2022-09-12T04:36:23;14.90;99.90
20035;DHT22;10178;48.034;9.800;2022-09-12T04:38:49;14.80;99.90
20035;DHT22;10178;48.034;9.800;2022-09-12T04:41:21;14.80;99.90
20035;DHT22;10178;48.034;9.800;2022-09-12T04:43:51;14.80;99.90
20035;DHT22;10178;48.034;9.800;2022-09-12T04:46:17;14.90;99.90
20035;DHT22;10178;48.034;9.800;2022-09-12T04:48:46;14.80;99.90
20035;DHT22;10178;48.034;9.800;2022-09-12T04:51:18;14.80;99.90
20035;DHT22;10178;48.034;9.800;2022-09-12T04:53:48;14.80;99.90
20035;DHT22;10178;48.034;9.800;2022-09-12T04:56:15;14.80;99.90
20035;DHT22;10178;48.034;9.800;2022-09-12T04:58:40;14.80;99.90
20035;DHT22;10178;48.034;9.800;2022-09-12T05:01:17;14.80;99.90
20035;DHT22;10178;48.034;9.800;2022-09-12T05:03:44;14.80;99.90
20035;DHT22;10178;48.034;9.800;2022-09-12T05:06:21;14.80;99.90
20035;DHT22;10178;48.034;9.800;2022-09-12T05:08:49;14.80;99.90
20035;DHT22;10178;48.034;9.800;2022-09-12T05:11:17;14.80;99.90
20035;DHT22;10178;48.034;9.800;2022-09-12T05:13:43;14.80;99.90
20035;DHT22;10178;48.034;9.800;2022-09-12T05:16:11;14.80;99.90
20035;DHT22;10178;48.034;9.800;2022-09-12T05:18:37;14.80;99.90
20035;DHT22;10178;48.034;9.800;2022-09-12T05:21:05;14.80;99.90
20035;DHT22;10178;48.034;9.800;2022-09-12T05:23:32;14.80;99.90
20035;DHT22;10178;48.034;9.800;2022-09-12T05:25:59;14.80;99.90
20035;DHT22;10178;48.034;9.800;2022-09-12T05:28:30;14.80;99.90
20035;DHT22;10178;48.034;9.800;2022-09-12T05:31:08;14.80;99.90
20035;DHT22;10178;48.034;9.800;2022-09-12T05:33:36;14.60;99.90
20035;DHT22;10178;48.034;9.800;2022-09-12T05:36:04;14.00;99.90
20035;DHT22;10178;48.034;9.800;2022-09-12T05:38:32;13.70;99.90
20035;DHT22;10178;48.034;9.800;2022-09-12T05:41:07;13.60;99.90
20035;DHT22;10178;48.034;9.800;2022-09-12T05:43:33;13.70;99.90
20035;DHT22;10178;48.034;9.800;2022-09-12T05:46:07;13.80;99.90
20035;DHT22;10178;48.034;9.800;2022-09-12T05:48:34;13.90;99.90
20035;DHT22;10178;48.034;9.800;2022-09-12T05:51:02;14.10;99.90
20035;DHT22;10178;48.034;9.800;2022-09-12T05:53:29;14.20;99.90
20035;DHT22;10178;48.034;9.800;2022-09-12T05:56:22;14.30;99.90
20035;DHT22;10178;48.034;9.800;2022-09-12T05:59:14;14.40;99.90
20035;DHT22;10178;48.034;9.800;2022-09-12T06:01:40;14.50;99.90
20035;DHT22;10178;48.034;9.800;2022-09-12T06:04:06;14.50;99.90
20035;DHT22;10178;48.034;9.800;2022-09-12T06:06:36;14.40;99.90
20035;DHT22;10178;48.034;9.800;2022-09-12T06:09:03;14.50;99.90
20035;DHT22;10178;48.034;9.800;2022-09-12T06:11:31;14.60;99.90
20035;DHT22;10178;48.034;9.800;2022-09-12T06:13:58;14.60;99.90
20035;DHT22;10178;48.034;9.800;2022-09-12T06:16:32;14.70;99.90
20035;DHT22;10178;48.034;9.800;2022-09-12T06:19:00;14.70;99.90
20035;DHT22;10178;48.034;9.800;2022-09-12T06:21:27;14.80;99.90
20035;DHT22;10178;48.034;9.800;2022-09-12T06:23:55;14.80;99.90
20035;DHT22;10178;48.034;9.800;2022-09-12T06:26:22;14.80;99.90
20035;DHT22;10178;48.034;9.800;2022-09-12T06:28:50;14.80;99.90
20035;DHT22;10178;48.034;9.800;2022-09-12T06:31:19;14.80;99.90
20035;DHT22;10178;48.034;9.800;2022-09-12T06:33:48;14.80;99.90
20035;DHT22;10178;48.034;9.800;2022-09-12T06:36:16;14.80;99.90
20035;DHT22;10178;48.034;9.800;2022-09-12T06:38:42;14.80;99.90
20035;DHT22;10178;48.034;9.800;2022-09-12T06:41:10;14.90;99.90
20035;DHT22;10178;48.034;9.800;2022-09-12T06:43:37;14.90;99.90
20035;DHT22;10178;48.034;9.800;2022-09-12T06:46:03;15.00;99.90
20035;DHT22;10178;48.034;9.800;2022-09-12T06:48:29;15.00;99.90
20035;DHT22;10178;48.034;9.800;2022-09-12T06:51:00;15.10;99.90
20035;DHT22;10178;48.034;9.800;2022-09-12T06:53:27;15.10;99.90
20035;DHT22;10178;48.034;9.800;2022-09-12T06:56:00;15.20;99.90
20035;DHT22;10178;48.034;9.800;2022-09-12T06:58:28;15.30;99.90
20035;DHT22;10178;48.034;9.800;2022-09-12T07:01:01;15.50;99.90
20035;DHT22;10178;48.034;9.800;2022-09-12T07:03:28;15.50;99.90
20035;DHT22;10178;48.034;9.800;2022-09-12T07:05:54;15.50;99.90
20035;DHT22;10178;48.034;9.800;2022-09-12T07:08:20;15.50;99.90
20035;DHT22;10178;48.034;9.800;2022-09-12T07:10:45;15.60;99.90
20035;DHT22;10178;48.034;9.800;2022-09-12T07:13:11;15.60;99.90
20035;DHT22;10178;48.034;9.800;2022-09-12T07:15:36;15.70;99.90
20035;DHT22;10178;48.034;9.800;2022-09-12T07:18:02;15.80;99.90
20035;DHT22;10178;48.034;9.800;2022-09-12T07:20:28;15.90;99.90
20035;DHT22;10178;48.034;9.800;2022-09-12T07:22:55;16.00;99.90
20035;DHT22;10178;48.034;9.800;2022-09-12T07:25:21;16.20;99.90
20035;DHT22;10178;48.034;9.800;2022-09-12T07:27:46;16.30;99.90
20035;DHT22;10178;48.034;9.800;2022-09-12T07:30:12;16.40;99.90
20035;DHT22;10178;48.034;9.800;2022-09-12T07:32:37;16.50;99.90
20035;DHT22;10178;48.034;9.800;2022-09-12T07:35:03;16.60;99.90
20035;DHT22;10178;48.034;9.800;2022-09-12T07:37:29;16.70;99.90
20035;DHT22;10178;48.034;9.800;2022-09-12T07:39:56;16.80;99.90
20035;DHT22;10178;48.034;9.800;2022-09-12T07:42:22;16.90;99.90
20035;DHT22;10178;48.034;9.800;2022-09-12T07:44:48;17.00;99.90
20035;DHT22;10178;48.034;9.800;2022-09-12T07:47:14;17.00;99.90
20035;DHT22;10178;48.034;9.800;2022-09-12T07:49:40;17.10;99.90
20035;DHT22;10178;48.034;9.800;2022-09-12T07:52:05;17.30;99.90
20035;DHT22;10178;48.034;9.800;2022-09-12T07:54:31;17.40;99.90
20035;DHT22;10178;48.034;9.800;2022-09-12T07:56:57;17.60;99.90
20035;DHT22;10178;48.034;9.800;2022-09-12T07:59:23;17.70;99.90
20035;DHT22;10178;48.034;9.800;2022-09-12T08:01:49;17.80;99.90
20035;DHT22;10178;48.034;9.800;2022-09-12T08:04:14;17.90;99.90
20035;DHT22;10178;48.034;9.800;2022-09-12T08:06:40;18.10;99.90
20035;DHT22;10178;48.034;9.800;2022-09-12T08:09:05;18.20;99.90
20035;DHT22;10178;48.034;9.800;2022-09-12T08:11:32;18.20;99.90
20035;DHT22;10178;48.034;9.800;2022-09-12T08:13:58;18.30;99.90
20035;DHT22;10178;48.034;9.800;2022-09-12T08:16:28;18.50;99.90
20035;DHT22;10178;48.034;9.800;2022-09-12T08:18:55;18.70;99.90
20035;DHT22;10178;48.034;9.800;2022-09-12T08:21:27;18.80;99.90
20035;DHT22;10178;48.034;9.800;2022-09-12T08:23:54;18.90;99.90
20035;DHT22;10178;48.034;9.800;2022-09-12T08:26:21;19.00;99.90
20035;DHT22;10178;48.034;9.800;2022-09-12T08:28:48;19.10;99.90
20035;DHT22;10178;48.034;9.800;2022-09-12T08:31:16;19.40;99.90
20035;DHT22;10178;48.034;9.800;2022-09-12T08:33:42;19.50;99.90
20035;DHT22;10178;48.034;9.800;2022-09-12T08:36:19;19.60;99.90
20035;DHT22;10178;48.034;9.800;2022-09-12T08:38:48;19.90;99.90
20035;DHT22;10178;48.034;9.800;2022-09-12T08:44:18;20.50;99.90
20035;DHT22;10178;48.034;9.800;2022-09-12T08:49:28;20.40;99.90
20035;DHT22;10178;48.034;9.800;2022-09-12T08:51:57;20.50;99.90
20035;DHT22;10178;48.034;9.800;2022-09-12T08:54:27;20.50;99.90
20035;DHT22;10178;48.034;9.800;2022-09-12T08:57:01;20.20;99.90
20035;DHT22;10178;48.034;9.800;2022-09-12T08:59:34;20.20;99.90
20035;DHT22;10178;48.034;9.800;2022-09-12T09:02:01;20.30;99.90
20035;DHT22;10178;48.034;9.800;2022-09-12T09:08:01;20.50;99.90
20035;DHT22;10178;48.034;9.800;2022-09-12T09:13:45;20.20;99.90
20035;DHT22;10178;48.034;9.800;2022-09-12T09:16:35;19.90;99.90
20035;DHT22;10178;48.034;9.800;2022-09-12T09:19:11;19.60;99.90
20035;DHT22;10178;48.034;9.800;2022-09-12T09:21:59;19.50;99.90
20035;DHT22;10178;48.034;9.800;2022-09-12T09:24:33;19.30;99.90
20035;DHT22;10178;48.034;9.800;2022-09-12T09:27:04;19.20;99.90
20035;DHT22;10178;48.034;9.800;2022-09-12T09:30:00;19.10;99.90
20035;DHT22;10178;48.034;9.800;2022-09-12T09:34:53;19.30;99.90
20035;DHT22;10178;48.034;9.800;2022-09-12T09:37:55;19.50;99.90
20035;DHT22;10178;48.034;9.800;2022-09-12T09:45:26;20.00;99.90
20035;DHT22;10178;48.034;9.800;2022-09-12T09:47:58;19.90;99.90
20035;DHT22;10178;48.034;9.800;2022-09-12T09:50:28;20.10;99.90
20035;DHT22;10178;48.034;9.800;2022-09-12T09:52:56;20.10;99.90
20035;DHT22;10178;48.034;9.800;2022-09-12T09:55:27;20.00;99.90
20035;DHT22;10178;48.034;9.800;2022-09-12T09:57:55;20.20;99.90
20035;DHT22;10178;48.034;9.800;2022-09-12T10:00:30;20.30;99.90
20035;DHT22;10178;48.034;9.800;2022-09-12T10:05:27;20.90;99.90
20035;DHT22;10178;48.034;9.800;2022-09-12T10:07:53;21.20;99.90
20035;DHT22;10178;48.034;9.800;2022-09-12T10:10:19;21.20;99.90
20035;DHT22;10178;48.034;9.800;2022-09-12T10:12:47;20.90;99.90
20035;DHT22;10178;48.034;9.800;2022-09-12T10:17:49;20.70;99.90
20035;DHT22;10178;48.034;9.800;2022-09-12T10:20:37;21.00;99.90
20035;DHT22;10178;48.034;9.800;2022-09-12T10:25:55;20.30;99.90
20035;DHT22;10178;48.034;9.800;2022-09-12T10:28:24;20.10;99.90
20035;DHT22;10178;48.034;9.800;2022-09-12T10:30:54;19.90;99.90
20035;DHT22;10178;48.034;9.800;2022-09-12T10:33:22;19.70;99.90
20035;DHT22;10178;48.034;9.800;2022-09-12T10:35:52;19.70;99.90
20035;DHT22;10178;48.034;9.800;2022-09-12T10:38:26;19.80;99.90
20035;DHT22;10178;48.034;9.800;2022-09-12T10:41:02;19.70;99.90
20035;DHT22;10178;48.034;9.800;2022-09-12T10:43:40;19.80;99.90
20035;DHT22;10178;48.034;9.800;2022-09-12T10:48:49;19.20;99.90
20035;DHT22;10178;48.034;9.800;2022-09-12T10:53:53;19.30;99.90
20035;DHT22;10178;48.034;9.800;2022-09-12T11:14:53;19.10;99.90
20035;DHT22;10178;48.034;9.800;2022-09-12T11:33:49;19.80;99.90
20035;DHT22;10178;48.034;9.800;2022-09-12T11:39:36;19.70;99.90
20035;DHT22;10178;48.034;9.800;2022-09-12T11:42:18;19.60;99.90
20035;DHT22;10178;48.034;9.800;2022-09-12T11:45:00;19.60;99.90
20035;DHT22;10178;48.034;9.800;2022-09-12T11:47:29;19.50;99.90
20035;DHT22;10178;48.034;9.800;2022-09-12T11:49:56;19.60;99.90
20035;DHT22;10178;48.034;9.800;2022-09-12T11:52:28;19.60;99.90
20035;DHT22;10178;48.034;9.800;2022-09-12T11:57:57;19.60;99.90
20035;DHT22;10178;48.034;9.800;2022-09-12T12:00:33;19.80;99.90
20035;DHT22;10178;48.034;9.800;2022-09-12T12:08:57;19.40;99.90
20035;DHT22;10178;48.034;9.800;2022-09-12T12:11:31;19.50;99.90
20035;DHT22;10178;48.034;9.800;2022-09-12T12:14:11;19.40;99.90
20035;DHT22;10178;48.034;9.800;2022-09-12T12:16:40;19.40;99.90
20035;DHT22;10178;48.034;9.800;2022-09-12T12:19:26;19.40;99.90
20035;DHT22;10178;48.034;9.800;2022-09-12T12:22:05;19.30;99.90
20035;DHT22;10178;48.034;9.800;2022-09-12T12:24:31;19.40;99.90
20035;DHT22;10178;48.034;9.800;2022-09-12T12:27:03;19.40;99.90
20035;DHT22;10178;48.034;9.800;2022-09-12T12:29:40;19.40;99.90
20035;DHT22;10178;48.034;9.800;2022-09-12T12:36:58;19.40;99.90
20035;DHT22;10178;48.034;9.800;2022-09-12T12:44:57;19.50;99.90
20035;DHT22;10178;48.034;9.800;2022-09-12T12:47:26;19.40;99.90
20035;DHT22;10178;48.034;9.800;2022-09-12T12:50:04;19.40;99.90
20035;DHT22;10178;48.034;9.800;2022-09-12T12:52:32;19.50;99.90
20035;DHT22;10178;48.034;9.800;2022-09-12T12:55:14;19.40;99.90
20035;DHT22;10178;48.034;9.800;2022-09-12T12:57:50;19.40;99.90
20035;DHT22;10178;48.034;9.800;2022-09-12T13:05:26;19.50;99.90
20035;DHT22;10178;48.034;9.800;2022-09-12T13:07:55;19.60;99.90
20035;DHT22;10178;48.034;9.800;2022-09-12T13:10:24;19.50;99.90
20035;DHT22;10178;48.034;9.800;2022-09-12T13:12:54;19.50;99.90
20035;DHT22;10178;48.034;9.800;2022-09-12T13:15:48;19.50;99.90
20035;DHT22;10178;48.034;9.800;2022-09-12T13:18:20;19.50;99.90
20035;DHT22;10178;48.034;9.800;2022-09-12T13:21:11;19.70;99.90
20035;DHT22;10178;48.034;9.800;2022-09-12T13:23:37;19.70;99.90
20035;DHT22;10178;48.034;9.800;2022-09-12T13:26:11;19.70;99.90
20035;DHT22;10178;48.034;9.800;2022-09-12T13:28:37;19.80;99.90
20035;DHT22;10178;48.034;9.800;2022-09-12T13:31:24;19.80;99.90
20035;DHT22;10178;48.034;9.800;2022-09-12T13:33:57;19.70;99.90
20035;DHT22;10178;48.034;9.800;2022-09-12T13:44:28;19.50;99.90
20035;DHT22;10178;48.034;9.800;2022-09-12T13:46:58;19.50;99.90
20035;DHT22;10178;48.034;9.800;2022-09-12T13:49:35;19.50;99.90
20035;DHT22;10178;48.034;9.800;2022-09-12T13:52:05;19.50;99.90
20035;DHT22;10178;48.034;9.800;2022-09-12T13:54:33;19.50;99.90
20035;DHT22;10178;48.034;9.800;2022-09-12T13:57:02;19.50;99.90
20035;DHT22;10178;48.034;9.800;2022-09-12T13:59:39;19.50;99.90
20035;DHT22;10178;48.034;9.800;2022-09-12T14:02:20;19.70;99.90
20035;DHT22;10178;48.034;9.800;2022-09-12T14:04:47;19.80;99.90
20035;DHT22;10178;48.034;9.800;2022-09-12T14:10:26;19.80;99.90
20035;DHT22;10178;48.034;9.800;2022-09-12T14:12:53;19.80;99.90
20035;DHT22;10178;48.034;9.800;2022-09-12T14:15:24;19.80;99.90
20035;DHT22;10178;48.034;9.800;2022-09-12T14:17:54;19.80;99.90
20035;DHT22;10178;48.034;9.800;2022-09-12T14:20:22;19.80;99.90
20035;DHT22;10178;48.034;9.800;2022-09-12T14:22:50;19.80;99.90
20035;DHT22;10178;48.034;9.800;2022-09-12T14:25:18;19.80;99.90
20035;DHT22;10178;48.034;9.800;2022-09-12T14:27:56;20.00;99.90
20035;DHT22;10178;48.034;9.800;2022-09-12T14:35:28;20.00;99.90
20035;DHT22;10178;48.034;9.800;2022-09-12T14:37:54;20.00;99.90
20035;DHT22;10178;48.034;9.800;2022-09-12T14:40:21;20.00;99.90
20035;DHT22;10178;48.034;9.800;2022-09-12T14:42:49;20.00;99.90
20035;DHT22;10178;48.034;9.800;2022-09-12T14:45:25;20.10;99.90
20035;DHT22;10178;48.034;9.800;2022-09-12T14:47:52;20.30;99.90
20035;DHT22;10178;48.034;9.800;2022-09-12T14:50:22;20.80;99.90
20035;DHT22;10178;48.034;9.800;2022-09-12T14:56:03;21.80;99.90
20035;DHT22;10178;48.034;9.800;2022-09-12T14:58:29;22.20;99.90
20035;DHT22;10178;48.034;9.800;2022-09-12T15:03:29;22.50;99.90
20035;DHT22;10178;48.034;9.800;2022-09-12T15:05:55;22.60;99.90
20035;DHT22;10178;48.034;9.800;2022-09-12T15:08:22;22.60;99.90
20035;DHT22;10178;48.034;9.800;2022-09-12T15:10:49;22.60;99.90
20035;DHT22;10178;48.034;9.800;2022-09-12T15:13:18;22.60;99.90
20035;DHT22;10178;48.034;9.800;2022-09-12T15:15:55;22.50;99.90
20035;DHT22;10178;48.034;9.800;2022-09-12T15:18:25;22.30;99.90
20035;DHT22;10178;48.034;9.800;2022-09-12T15:20:55;22.00;99.90
20035;DHT22;10178;48.034;9.800;2022-09-12T15:25:57;21.70;99.90
20035;DHT22;10178;48.034;9.800;2022-09-12T15:28:23;21.50;99.90
20035;DHT22;10178;48.034;9.800;2022-09-12T15:30:51;21.50;99.90
20035;DHT22;10178;48.034;9.800;2022-09-12T15:33:18;21.40;99.90
20035;DHT22;10178;48.034;9.800;2022-09-12T15:35:45;21.30;99.90
20035;DHT22;10178;48.034;9.800;2022-09-12T15:38:11;21.30;99.90
20035;DHT22;10178;48.034;9.800;2022-09-12T15:40:37;21.30;99.90
20035;DHT22;10178;48.034;9.800;2022-09-12T15:43:04;21.50;99.90
20035;DHT22;10178;48.034;9.800;2022-09-12T15:45:32;21.70;99.90
20035;DHT22;10178;48.034;9.800;2022-09-12T15:47:58;22.00;99.90
20035;DHT22;10178;48.034;9.800;2022-09-12T15:50:24;22.20;99.90
20035;DHT22;10178;48.034;9.800;2022-09-12T15:56:15;22.60;99.90
20035;DHT22;10178;48.034;9.800;2022-09-12T15:58:40;22.70;99.90
20035;DHT22;10178;48.034;9.800;2022-09-12T16:01:11;22.90;99.90
20035;DHT22;10178;48.034;9.800;2022-09-12T16:03:37;22.90;99.90
20035;DHT22;10178;48.034;9.800;2022-09-12T16:06:03;23.00;99.90
20035;DHT22;10178;48.034;9.800;2022-09-12T16:08:30;23.00;99.90
20035;DHT22;10178;48.034;9.800;2022-09-12T16:11:04;23.00;99.90
20035;DHT22;10178;48.034;9.800;2022-09-12T16:13:31;23.10;99.90
20035;DHT22;10178;48.034;9.800;2022-09-12T16:15:58;23.10;99.90
20035;DHT22;10178;48.034;9.800;2022-09-12T16:18:47;23.10;99.90
20035;DHT22;10178;48.034;9.800;2022-09-12T16:21:13;23.10;99.90
20035;DHT22;10178;48.034;9.800;2022-09-12T16:23:41;23.00;99.90
20035;DHT22;10178;48.034;9.800;2022-09-12T16:26:07;23.00;99.90
20035;DHT22;10178;48.034;9.800;2022-09-12T16:28:33;22.90;99.90
20035;DHT22;10178;48.034;9.800;2022-09-12T16:31:00;22.90;99.90
20035;DHT22;10178;48.034;9.800;2022-09-12T16:33:26;22.90;99.90
20035;DHT22;10178;48.034;9.800;2022-09-12T16:35:52;22.90;99.90
20035;DHT22;10178;48.034;9.800;2022-09-12T16:38:25;22.90;99.90
20035;DHT22;10178;48.034;9.800;2022-09-12T16:40:50;22.90;99.90
20035;DHT22;10178;48.034;9.800;2022-09-12T16:43:16;22.90;99.90
20035;DHT22;10178;48.034;9.800;2022-09-12T16:45:43;22.80;99.90
20035;DHT22;10178;48.034;9.800;2022-09-12T16:48:09;22.80;99.90
20035;DHT22;10178;48.034;9.800;2022-09-12T16:50:34;22.80;99.90
20035;DHT22;10178;48.034;9.800;2022-09-12T16:53:00;22.80;99.90
20035;DHT22;10178;48.034;9.800;2022-09-12T16:55:25;22.80;99.90
20035;DHT22;10178;48.034;9.800;2022-09-12T16:57:53;22.80;99.90
20035;DHT22;10178;48.034;9.800;2022-09-12T17:00:19;22.70;99.90
20035;DHT22;10178;48.034;9.800;2022-09-12T17:02:45;22.70;99.90
20035;DHT22;10178;48.034;9.800;2022-09-12T17:05:12;22.70;99.90
20035;DHT22;10178;48.034;9.800;2022-09-12T17:07:40;22.60;99.90
20035;DHT22;10178;48.034;9.800;2022-09-12T17:10:06;22.60;99.90
20035;DHT22;10178;48.034;9.800;2022-09-12T17:12:49;22.50;99.90
20035;DHT22;10178;48.034;9.800;2022-09-12T17:15:14;22.40;99.90
20035;DHT22;10178;48.034;9.800;2022-09-12T17:17:40;22.30;99.90
20035;DHT22;10178;48.034;9.800;2022-09-12T17:20:37;22.20;99.90
20035;DHT22;10178;48.034;9.800;2022-09-12T17:23:02;22.10;99.90
20035;DHT22;10178;48.034;9.800;2022-09-12T17:25:28;22.10;99.90
20035;DHT22;10178;48.034;9.800;2022-09-12T17:27:54;22.10;99.90
20035;DHT22;10178;48.034;9.800;2022-09-12T17:30:19;21.90;99.90
20035;DHT22;10178;48.034;9.800;2022-09-12T17:32:45;22.10;99.90
20035;DHT22;10178;48.034;9.800;2022-09-12T17:35:14;22.30;99.90
20035;DHT22;10178;48.034;9.800;2022-09-12T17:37:40;22.50;99.90
20035;DHT22;10178;48.034;9.800;2022-09-12T17:40:06;22.50;99.90
20035;DHT22;10178;48.034;9.800;2022-09-12T17:42:33;22.60;99.90
20035;DHT22;10178;48.034;9.800;2022-09-12T17:45:00;22.60;99.90
20035;DHT22;10178;48.034;9.800;2022-09-12T17:47:42;22.60;99.90
20035;DHT22;10178;48.034;9.800;2022-09-12T17:50:08;22.60;99.90
20035;DHT22;10178;48.034;9.800;2022-09-12T17:52:34;22.60;99.90
20035;DHT22;10178;48.034;9.800;2022-09-12T17:55:00;22.50;99.90
20035;DHT22;10178;48.034;9.800;2022-09-12T17:57:53;22.40;99.90
20035;DHT22;10178;48.034;9.800;2022-09-12T18:00:19;22.40;99.90
20035;DHT22;10178;48.034;9.800;2022-09-12T18:03:04;22.40;99.90
20035;DHT22;10178;48.034;9.800;2022-09-12T18:05:30;22.50;99.90
20035;DHT22;10178;48.034;9.800;2022-09-12T18:07:56;22.40;99.90
20035;DHT22;10178;48.034;9.800;2022-09-12T18:13:39;22.40;99.90
20035;DHT22;10178;48.034;9.800;2022-09-12T18:16:06;22.30;99.90
20035;DHT22;10178;48.034;9.800;2022-09-12T18:18:33;22.30;99.90
20035;DHT22;10178;48.034;9.800;2022-09-12T18:21:00;22.30;99.90
20035;DHT22;10178;48.034;9.800;2022-09-12T18:23:25;22.20;99.90
20035;DHT22;10178;48.034;9.800;2022-09-12T18:25:59;22.20;99.90
20035;DHT22;10178;48.034;9.800;2022-09-12T18:28:33;22.10;99.90
20035;DHT22;10178;48.034;9.800;2022-09-12T18:31:00;22.10;99.90
20035;DHT22;10178;48.034;9.800;2022-09-12T18:33:26;22.10;99.90